createdAt,value
2018-03-16T00:00:37.533Z,17.77
2018-03-16T00:03:05.026Z,21.70
2018-03-16T00:05:32.550Z,24.13
2018-03-16T00:08:00.054Z,18.80
2018-03-16T00:10:27.582Z,20.03
2018-03-16T00:12:55.083Z,23.40
2018-03-16T00:15:22.903Z,23.93
2018-03-16T00:17:50.438Z,18.20
2018-03-16T00:20:18.703Z,22.47
2018-03-16T00:31:20.212Z,25.00
2018-03-16T00:33:48.478Z,20.77
2018-03-16T00:36:15.973Z,21.23
2018-03-16T00:38:43.498Z,23.27
2018-03-16T00:41:10.997Z,22.50
2018-03-16T00:43:38.523Z,28.40
2018-03-16T00:46:06.787Z,22.43
2018-03-16T00:48:34.288Z,21.07
2018-03-16T00:51:01.822Z,24.53
2018-03-16T00:53:30.082Z,24.40
2018-03-16T00:55:57.606Z,21.77
2018-03-16T00:58:25.106Z,25.17
2018-03-16T01:00:53.375Z,23.83
2018-03-16T01:03:20.894Z,22.80
2018-03-16T01:05:48.395Z,22.07
2018-03-16T01:08:15.914Z,23.50
2018-03-16T01:10:43.409Z,24.43
2018-03-16T01:13:10.907Z,23.97
2018-03-16T01:15:38.430Z,27.07
2018-03-16T01:18:05.930Z,25.00
2018-03-16T01:20:39.071Z,22.07
2018-03-16T01:23:06.566Z,25.03
2018-03-16T01:25:34.067Z,24.83
2018-03-16T01:28:01.593Z,26.20
2018-03-16T01:30:29.086Z,25.97
2018-03-16T01:32:56.607Z,25.53
2018-03-16T01:35:24.106Z,29.33
2018-03-16T01:37:51.601Z,22.80
2018-03-16T01:40:19.891Z,27.00
2018-03-16T01:42:47.389Z,24.97
2018-03-16T01:45:14.910Z,27.20
2018-03-16T01:47:42.430Z,30.30
2018-03-16T01:50:09.930Z,31.23
2018-03-16T01:52:37.454Z,25.67
2018-03-16T01:55:04.958Z,25.77
2018-03-16T01:57:32.482Z,28.30
2018-03-16T02:00:00.750Z,25.17
2018-03-16T02:02:29.042Z,25.10
2018-03-16T02:04:57.311Z,28.33
2018-03-16T02:07:25.579Z,28.03
2018-03-16T02:09:53.862Z,26.60
2018-03-16T02:12:22.125Z,25.10
2018-03-16T02:14:49.642Z,29.73
2018-03-16T02:17:17.214Z,28.40
2018-03-16T02:19:44.718Z,25.03
2018-03-16T02:22:13.009Z,25.40
2018-03-16T02:24:40.513Z,30.70
2018-03-16T02:27:08.036Z,29.67
2018-03-16T02:29:35.538Z,28.07
2018-03-16T02:32:03.039Z,29.57
2018-03-16T02:34:30.563Z,26.00
2018-03-16T02:36:58.066Z,27.23
2018-03-16T02:39:25.591Z,25.33
2018-03-16T02:41:53.091Z,28.20
2018-03-16T02:44:20.619Z,29.93
2018-03-16T02:46:48.891Z,28.63
2018-03-16T02:49:17.159Z,28.80
2018-03-16T02:51:44.682Z,28.63
2018-03-16T02:54:12.179Z,29.00
2018-03-16T02:56:39.703Z,28.77
2018-03-16T02:59:07.202Z,31.27
2018-03-16T03:01:35.496Z,34.13
2018-03-16T03:04:03.010Z,26.33
2018-03-16T03:06:30.510Z,27.60
2018-03-16T03:08:58.030Z,28.83
2018-03-16T03:11:25.530Z,30.00
2018-03-16T03:13:53.054Z,30.20
2018-03-16T03:16:20.550Z,30.40
2018-03-16T03:18:48.057Z,32.10
2018-03-16T03:21:15.578Z,33.80
2018-03-16T03:23:43.078Z,43.33
2018-03-16T03:26:10.599Z,42.03
2018-03-16T03:28:38.098Z,43.37
2018-03-16T03:31:05.606Z,39.43
2018-03-16T03:33:33.130Z,37.50
2018-03-16T03:36:00.630Z,38.43
2018-03-16T03:38:28.157Z,38.23
2018-03-16T03:40:56.428Z,36.20
2018-03-16T03:43:24.702Z,43.00
2018-03-16T03:45:53.002Z,39.40
2018-03-16T03:48:20.501Z,41.23
2018-03-16T03:50:48.022Z,39.80
2018-03-16T03:53:15.522Z,41.33
2018-03-16T03:55:43.021Z,38.67
2018-03-16T03:58:11.310Z,39.27
2018-03-16T04:00:38.805Z,37.50
2018-03-16T04:03:06.322Z,35.93
2018-03-16T04:05:34.586Z,34.23
2018-03-16T04:08:02.876Z,38.10
2018-03-16T04:10:31.142Z,36.10
2018-03-16T04:12:59.406Z,34.90
2018-03-16T04:15:26.930Z,35.80
2018-03-16T04:17:55.195Z,32.37
2018-03-16T04:20:22.718Z,35.10
2018-03-16T04:22:50.986Z,36.47
2018-03-16T04:25:19.251Z,33.00
2018-03-16T04:27:46.778Z,32.20
2018-03-16T04:30:14.278Z,48.67
2018-03-16T04:32:42.562Z,38.40
2018-03-16T04:35:10.826Z,32.60
2018-03-16T04:37:39.118Z,36.53
2018-03-16T04:40:07.387Z,32.90
2018-03-16T04:42:35.654Z,35.70
2018-03-16T04:45:03.950Z,32.37
2018-03-16T04:47:32.218Z,32.53
2018-03-16T04:50:00.506Z,33.97
2018-03-16T04:52:28.007Z,34.83
2018-03-16T04:54:55.533Z,37.97
2018-03-16T04:57:23.034Z,39.50
2018-03-16T04:59:50.530Z,35.10
2018-03-16T05:02:18.818Z,39.10
2018-03-16T05:04:46.318Z,36.00
2018-03-16T05:07:13.838Z,37.33
2018-03-16T05:09:41.338Z,36.63
2018-03-16T05:12:08.865Z,31.77
2018-03-16T05:14:36.363Z,31.40
2018-03-16T05:17:03.882Z,39.67
2018-03-16T05:19:31.386Z,34.63
2018-03-16T05:21:58.914Z,32.97
2018-03-16T05:24:26.414Z,36.23
2018-03-16T05:26:53.914Z,33.73
2018-03-16T05:29:21.434Z,39.90
2018-03-16T05:31:49.710Z,38.33
2018-03-16T05:34:17.235Z,36.37
2018-03-16T05:36:44.738Z,41.10
2018-03-16T05:39:13.017Z,37.37
2018-03-16T05:41:41.283Z,37.37
2018-03-16T05:44:08.782Z,37.80
2018-03-16T05:46:36.306Z,47.50
2018-03-16T05:49:04.587Z,41.80
2018-03-16T05:51:32.878Z,40.20
2018-03-16T05:54:00.378Z,40.03
2018-03-16T05:56:27.902Z,41.13
2018-03-16T05:58:55.402Z,44.43
2018-03-16T06:01:22.903Z,46.63
2018-03-16T06:03:51.193Z,47.40
2018-03-16T06:06:18.698Z,51.10
2018-03-16T06:08:46.986Z,48.07
2018-03-16T06:11:14.486Z,48.13
2018-03-16T06:13:42.012Z,47.20
2018-03-16T06:16:09.511Z,51.50
2018-03-16T06:18:37.011Z,92.57
2018-03-16T06:21:04.538Z,47.50
2018-03-16T06:23:32.038Z,50.43
2018-03-16T06:25:59.563Z,49.10
2018-03-16T06:28:27.058Z,52.37
2018-03-16T06:30:54.582Z,45.57
2018-03-16T06:33:22.082Z,50.80
2018-03-16T06:35:49.579Z,47.63
2018-03-16T06:38:17.102Z,47.57
2018-03-16T06:40:45.374Z,44.90
2018-03-16T06:43:12.897Z,51.27
2018-03-16T06:45:41.162Z,45.37
2018-03-16T06:48:08.689Z,53.47
2018-03-16T06:50:36.955Z,43.70
2018-03-16T06:53:05.222Z,46.67
2018-03-16T06:55:33.510Z,46.80
2018-03-16T06:58:01.775Z,47.57
2018-03-16T07:00:30.062Z,45.07
2018-03-16T07:02:58.326Z,43.23
2018-03-16T07:05:25.850Z,45.37
2018-03-16T07:07:53.349Z,44.40
2018-03-16T07:10:21.623Z,45.67
2018-03-16T07:12:49.906Z,47.53
2018-03-16T07:15:30.233Z,49.60
2018-03-16T07:17:57.786Z,42.40
2018-03-16T07:20:25.270Z,44.53
2018-03-16T07:22:52.791Z,50.37
2018-03-16T07:25:20.295Z,41.10
2018-03-16T07:27:48.559Z,44.57
2018-03-16T07:30:16.083Z,46.27
2018-03-16T07:32:43.642Z,47.80
2018-03-16T07:35:11.889Z,58.30
2018-03-16T07:37:39.403Z,41.77
2018-03-16T07:40:06.902Z,44.87
2018-03-16T07:42:34.426Z,42.87
2018-03-16T07:45:01.932Z,45.30
2018-03-16T07:47:29.454Z,49.00
2018-03-16T07:49:57.723Z,43.23
2018-03-16T07:52:25.247Z,43.60
2018-03-16T07:54:53.510Z,51.27
2018-03-16T07:57:21.011Z,41.13
2018-03-16T07:59:48.535Z,46.53
2018-03-16T08:02:16.035Z,44.87
2018-03-16T08:04:43.558Z,53.37
2018-03-16T08:07:11.058Z,54.83
2018-03-16T08:09:39.353Z,80.70
2018-03-16T08:12:07.622Z,56.93
2018-03-16T08:14:35.898Z,55.07
2018-03-16T08:17:03.427Z,49.93
2018-03-16T08:19:30.917Z,61.10
2018-03-16T08:21:59.211Z,52.67
2018-03-16T08:24:27.530Z,48.20
2018-03-16T08:26:55.054Z,43.50
2018-03-16T08:29:22.554Z,46.47
2018-03-16T08:31:50.056Z,38.07
2018-03-16T08:34:17.583Z,44.43
2018-03-16T08:36:45.085Z,44.20
2018-03-16T08:39:12.648Z,39.57
2018-03-16T08:41:40.130Z,32.17
2018-03-16T08:44:07.658Z,33.87
2018-03-16T08:46:35.158Z,36.63
2018-03-16T08:49:02.666Z,34.73
2018-03-16T08:51:30.191Z,34.13
2018-03-16T08:53:57.690Z,30.43
2018-03-16T08:56:25.215Z,29.00
2018-03-16T08:58:52.714Z,23.93
2018-03-16T09:01:20.490Z,22.43
2018-03-16T09:03:48.002Z,27.07
2018-03-16T09:06:16.267Z,21.47
2018-03-16T09:08:43.782Z,20.43
2018-03-16T09:11:11.282Z,24.93
2018-03-16T09:13:38.801Z,25.53
2018-03-16T09:16:06.302Z,19.67
2018-03-16T09:18:34.147Z,21.07
2018-03-16T09:21:01.682Z,22.90
2018-03-16T09:23:29.186Z,17.77
2018-03-16T09:25:56.706Z,22.20
2018-03-16T09:28:24.211Z,16.83
2018-03-16T09:30:52.506Z,20.63
2018-03-16T09:33:20.853Z,19.87
2018-03-16T09:35:48.368Z,20.53
2018-03-16T09:38:15.904Z,22.90
2018-03-16T09:40:43.415Z,19.43
2018-03-16T09:43:10.938Z,19.93
2018-03-16T09:45:38.458Z,20.13
2018-03-16T09:48:06.754Z,21.60
2018-03-16T09:50:34.286Z,21.73
2018-03-16T09:53:01.779Z,18.47
2018-03-16T09:55:47.052Z,18.77
2018-03-16T09:58:14.559Z,17.47
2018-03-16T10:00:42.083Z,17.27
2018-03-16T10:03:09.592Z,13.43
2018-03-16T10:05:37.112Z,14.40
2018-03-16T10:08:04.605Z,15.90
2018-03-16T10:10:32.102Z,12.93
2018-03-16T10:12:59.633Z,17.43
2018-03-16T10:15:27.900Z,11.80
2018-03-16T10:17:55.423Z,11.40
2018-03-16T10:20:22.926Z,10.13
2018-03-16T10:22:50.450Z,11.10
2018-03-16T10:25:17.951Z,10.50
2018-03-16T10:27:46.235Z,10.03
2018-03-16T10:30:14.522Z,10.40
2018-03-16T10:32:42.023Z,10.70
2018-03-16T10:35:09.546Z,10.30
2018-03-16T10:37:37.050Z,9.87
2018-03-16T10:40:04.750Z,9.60
2018-03-16T10:42:33.015Z,10.50
2018-03-16T10:45:01.279Z,8.40
2018-03-16T10:47:28.793Z,8.53
2018-03-16T10:49:56.286Z,7.60
2018-03-16T10:52:23.803Z,8.60
2018-03-16T10:54:51.298Z,9.43
2018-03-16T10:57:19.610Z,9.33
2018-03-16T10:59:47.095Z,9.77
2018-03-16T11:02:19.586Z,9.30
2018-03-16T11:04:52.906Z,10.30
2018-03-16T11:07:20.423Z,9.83
2018-03-16T11:09:47.922Z,10.50
2018-03-16T11:12:15.427Z,9.40
2018-03-16T11:14:42.952Z,9.80
2018-03-16T11:17:10.446Z,7.17
2018-03-16T11:19:37.965Z,7.00
2018-03-16T11:22:05.468Z,6.83
2018-03-16T11:24:32.991Z,6.70
2018-03-16T11:27:00.486Z,7.37
2018-03-16T11:29:27.987Z,8.03
2018-03-16T11:31:55.516Z,6.07
2018-03-16T11:34:23.018Z,4.90
2018-03-16T11:36:50.542Z,8.73
2018-03-16T11:39:18.037Z,6.00
2018-03-16T11:41:45.554Z,6.93
2018-03-16T11:44:13.050Z,5.27
2018-03-16T11:46:40.538Z,6.33
2018-03-16T11:49:08.867Z,5.90
2018-03-16T11:51:36.342Z,5.40
2018-03-16T11:54:03.866Z,5.63
2018-03-16T11:56:31.358Z,4.07
2018-03-16T11:58:58.858Z,5.07
2018-03-16T12:01:26.386Z,4.80
2018-03-16T12:03:54.658Z,3.50
2018-03-16T12:06:22.178Z,3.67
2018-03-16T12:08:49.670Z,3.90
2018-03-16T12:11:17.475Z,3.87
2018-03-16T12:13:44.974Z,3.77
2018-03-16T12:16:12.466Z,3.60
2018-03-16T12:18:40.758Z,4.00
2018-03-16T12:21:09.022Z,3.80
2018-03-16T12:23:37.310Z,5.13
2018-03-16T12:26:05.570Z,3.23
2018-03-16T12:28:49.434Z,3.80
2018-03-16T12:31:00.635Z,3.37
2018-03-16T12:33:28.126Z,3.43
2018-03-16T12:35:55.650Z,3.37
2018-03-16T12:38:23.159Z,3.47
2018-03-16T12:40:50.689Z,3.53
2018-03-16T12:43:18.190Z,3.13
2018-03-16T12:45:46.474Z,3.50
2018-03-16T12:48:14.739Z,3.77
2018-03-16T12:50:43.004Z,4.20
2018-03-16T12:53:11.302Z,3.73
2018-03-16T12:55:39.565Z,3.70
2018-03-16T12:58:07.905Z,3.50
2018-03-16T13:00:35.366Z,3.40
2018-03-16T13:03:02.887Z,3.10
2018-03-16T13:05:30.386Z,2.53
2018-03-16T13:07:57.898Z,2.80
2018-03-16T13:10:25.423Z,3.00
2018-03-16T13:12:52.927Z,3.00
2018-03-16T13:15:20.465Z,3.40
2018-03-16T13:17:47.966Z,3.07
2018-03-16T13:20:15.486Z,2.97
2018-03-16T13:22:42.991Z,2.70
2018-03-16T13:25:10.487Z,2.27
2018-03-16T13:27:38.775Z,3.70
2018-03-16T13:30:07.042Z,2.50
2018-03-16T13:32:35.322Z,2.60
2018-03-16T13:35:03.587Z,2.93
2018-03-16T13:37:31.878Z,3.53
2018-03-16T13:40:00.146Z,3.83
2018-03-16T13:42:28.402Z,3.60
2018-03-16T13:44:55.919Z,3.30
2018-03-16T13:47:23.415Z,2.20
2018-03-16T13:49:50.931Z,1.93
2018-03-16T13:52:18.426Z,1.90
2018-03-16T13:54:45.947Z,2.20
2018-03-16T13:57:13.446Z,2.37
2018-03-16T13:59:40.944Z,2.10
2018-03-16T14:02:09.232Z,2.77
2018-03-16T14:04:37.588Z,2.20
2018-03-16T14:07:05.872Z,2.23
2018-03-16T14:09:34.134Z,2.53
2018-03-16T14:12:02.427Z,2.30
2018-03-16T14:14:30.690Z,1.87
2018-03-16T14:16:58.975Z,2.43
2018-03-16T14:19:27.243Z,2.40
2018-03-16T14:21:55.510Z,2.73
2018-03-16T14:24:23.026Z,2.73
2018-03-16T14:26:50.518Z,2.10
2018-03-16T14:29:18.038Z,2.40
2018-03-16T14:31:45.538Z,2.70
2018-03-16T14:34:13.062Z,3.00
2018-03-16T14:36:40.558Z,3.20
2018-03-16T14:39:08.807Z,2.90
2018-03-16T14:41:36.336Z,3.27
2018-03-16T14:44:03.835Z,3.07
2018-03-16T14:46:31.358Z,5.03
2018-03-16T14:48:58.859Z,3.70
2018-03-16T14:51:26.383Z,4.50
2018-03-16T14:53:53.888Z,3.73
2018-03-16T14:56:21.391Z,3.63
2018-03-16T14:58:48.910Z,3.73
2018-03-16T15:01:17.175Z,4.00
2018-03-16T15:03:44.703Z,4.23
2018-03-16T15:06:12.203Z,3.80
2018-03-16T15:08:40.499Z,3.90
2018-03-16T15:11:07.998Z,3.93
2018-03-16T15:13:35.506Z,4.53
2018-03-16T15:16:03.795Z,4.30
2018-03-16T15:18:31.302Z,4.50
2018-03-16T15:20:58.818Z,4.47
2018-03-16T15:23:26.319Z,3.83
2018-03-16T15:25:53.851Z,4.40
2018-03-16T15:28:21.354Z,4.13
2018-03-16T15:30:48.850Z,4.20
2018-03-16T15:33:16.373Z,4.77
2018-03-16T15:35:43.870Z,3.90
2018-03-16T15:38:11.406Z,4.60
2018-03-16T15:40:39.662Z,4.37
2018-03-16T15:43:07.184Z,4.17
2018-03-16T15:45:34.679Z,4.50
2018-03-16T15:48:02.214Z,4.17
2018-03-16T15:50:29.723Z,4.77
2018-03-16T15:52:57.978Z,5.73
2018-03-16T15:55:25.495Z,4.60
2018-03-16T15:57:52.990Z,4.47
2018-03-16T16:00:20.506Z,4.07
2018-03-16T16:02:48.010Z,5.07
2018-03-16T16:05:15.506Z,5.40
2018-03-16T16:07:43.022Z,5.03
2018-03-16T16:10:10.514Z,7.17
2018-03-16T16:12:38.038Z,5.50
2018-03-16T16:15:05.597Z,4.60
2018-03-16T16:17:33.046Z,5.73
2018-03-16T16:20:00.568Z,4.83
2018-03-16T16:22:28.062Z,4.33
2018-03-16T16:24:55.579Z,4.70
2018-03-16T16:27:23.130Z,4.60
2018-03-16T16:29:50.654Z,4.77
2018-03-16T16:32:18.147Z,4.00
2018-03-16T16:34:45.672Z,4.53
2018-03-16T16:37:13.167Z,4.87
2018-03-16T16:39:40.671Z,4.93
2018-03-16T16:42:08.186Z,4.00
2018-03-16T16:44:35.678Z,3.60
2018-03-16T16:47:03.196Z,3.80
2018-03-16T16:49:30.690Z,4.77
2018-03-16T16:51:58.210Z,4.33
2018-03-16T16:54:25.706Z,4.40
2018-03-16T16:56:53.202Z,4.80
2018-03-16T16:59:21.490Z,5.17
2018-03-16T17:01:49.747Z,4.50
2018-03-16T17:04:17.268Z,4.07
2018-03-16T17:06:44.762Z,3.67
2018-03-16T17:09:12.283Z,3.63
2018-03-16T17:11:39.779Z,3.80
2018-03-16T17:14:07.307Z,3.27
2018-03-16T17:16:34.852Z,3.47
2018-03-16T17:19:02.339Z,3.37
2018-03-16T17:21:29.855Z,3.33
2018-03-16T17:23:57.350Z,3.47
2018-03-16T17:26:24.866Z,4.27
2018-03-16T17:28:52.358Z,4.30
2018-03-16T17:31:19.873Z,6.27
2018-03-16T17:33:48.159Z,6.57
2018-03-16T17:36:15.659Z,5.53
2018-03-16T17:38:43.191Z,4.83
2018-03-16T17:41:10.690Z,21.73
2018-03-16T17:43:38.191Z,13.80
2018-03-16T17:46:05.711Z,5.50
2018-03-16T17:48:33.206Z,9.13
2018-03-16T17:51:00.731Z,4.97
2018-03-16T17:53:28.230Z,5.33
2018-03-16T17:55:55.722Z,6.17
2018-03-16T17:58:23.243Z,9.10
2018-03-16T18:00:50.739Z,5.63
2018-03-16T18:03:18.259Z,5.10
2018-03-16T18:05:45.762Z,18.23
2018-03-16T18:08:13.271Z,25.70
2018-03-16T18:10:40.786Z,8.10
2018-03-16T18:13:08.295Z,3.80
2018-03-16T18:15:35.869Z,5.13
2018-03-16T18:18:03.367Z,4.27
2018-03-16T18:20:30.858Z,4.43
2018-03-16T18:22:59.138Z,2.70
2018-03-16T18:25:27.450Z,3.30
2018-03-16T18:27:55.710Z,2.90
2018-03-16T18:30:23.208Z,2.67
2018-03-16T18:32:50.735Z,2.90
2018-03-16T18:35:18.243Z,3.37
2018-03-16T18:37:46.514Z,1.87
2018-03-16T18:40:14.043Z,2.90
2018-03-16T18:42:41.539Z,5.03
2018-03-16T18:45:09.059Z,5.30
2018-03-16T18:47:36.559Z,5.80
2018-03-16T18:50:05.410Z,10.30
2018-03-16T18:52:32.902Z,7.40
2018-03-16T18:55:01.174Z,6.80
2018-03-16T18:57:28.690Z,6.80
2018-03-16T18:59:56.182Z,7.10
2018-03-16T19:02:23.699Z,6.80
2018-03-16T19:04:51.190Z,7.33
2018-03-16T19:07:18.707Z,7.20
2018-03-16T19:09:46.202Z,6.37
2018-03-16T19:12:13.699Z,7.30
2018-03-16T19:14:41.989Z,6.63
2018-03-16T19:17:09.491Z,6.97
2018-03-16T19:19:37.006Z,6.17
2018-03-16T19:22:04.498Z,6.20
2018-03-16T19:24:31.991Z,7.23
2018-03-16T19:26:59.513Z,6.43
2018-03-16T19:29:27.006Z,6.27
2018-03-16T19:31:54.527Z,6.00
2018-03-16T19:34:22.020Z,6.50
2018-03-16T19:36:49.543Z,6.20
2018-03-16T19:39:17.038Z,5.90
2018-03-16T19:41:44.530Z,5.10
2018-03-16T19:44:12.050Z,5.17
2018-03-16T19:46:39.542Z,5.27
2018-03-16T19:49:07.823Z,5.13
2018-03-16T19:51:36.078Z,4.70
2018-03-16T19:54:03.599Z,4.10
2018-03-16T19:56:31.104Z,5.30
2018-03-16T19:58:59.363Z,3.83
2018-03-16T20:01:26.879Z,4.13
2018-03-16T20:03:54.374Z,4.20
2018-03-16T20:06:21.899Z,4.80
2018-03-16T20:08:49.390Z,5.20
2018-03-16T20:11:16.907Z,6.40
2018-03-16T20:13:44.402Z,6.00
2018-03-16T20:16:11.898Z,7.13
2018-03-16T20:18:40.182Z,6.90
2018-03-16T20:21:07.674Z,7.20
2018-03-16T20:23:35.199Z,15.97
2018-03-16T20:26:02.706Z,274.13
2018-03-16T20:28:30.230Z,8.17
2018-03-16T20:30:57.739Z,9.53
2018-03-16T20:33:25.233Z,9.17
2018-03-16T20:35:52.751Z,9.53
2018-03-16T20:38:20.247Z,9.50
2018-03-16T20:40:47.775Z,9.13
2018-03-16T20:43:15.275Z,10.20
2018-03-16T20:45:42.798Z,10.90
2018-03-16T20:48:11.067Z,11.40
2018-03-16T20:50:38.566Z,11.23
2018-03-16T20:53:06.092Z,12.53
2018-03-16T20:55:33.587Z,11.57
2018-03-16T20:58:01.106Z,10.90
2018-03-16T21:00:28.608Z,13.07
2018-03-16T21:02:56.126Z,14.67
2018-03-16T21:05:23.623Z,12.73
2018-03-16T21:07:51.140Z,16.93
2018-03-16T21:10:18.662Z,12.40
2018-03-16T21:12:46.158Z,13.70
2018-03-16T21:15:13.679Z,14.70
2018-03-16T21:17:41.174Z,15.00
2018-03-16T21:20:08.713Z,14.60
2018-03-16T21:22:36.218Z,15.47
2018-03-16T21:25:03.718Z,14.60
2018-03-16T21:27:31.243Z,13.40
2018-03-16T21:29:58.746Z,16.10
2018-03-16T21:32:26.267Z,14.87
2018-03-16T21:34:53.766Z,18.83
2018-03-16T21:37:21.286Z,15.93
2018-03-16T21:39:48.791Z,18.40
2018-03-16T21:42:16.292Z,16.50
2018-03-16T21:44:43.819Z,17.57
2018-03-16T21:47:11.318Z,17.90
2018-03-16T21:49:38.843Z,18.07
2018-03-16T21:52:07.110Z,17.47
2018-03-16T21:54:34.635Z,19.13
2018-03-16T21:57:02.138Z,15.07
2018-03-16T21:59:30.410Z,18.23
2018-03-16T22:01:58.698Z,16.07
2018-03-16T22:04:26.968Z,19.93
2018-03-16T22:06:55.259Z,17.50
2018-03-16T22:09:22.763Z,17.00
2018-03-16T22:11:50.291Z,21.30
2018-03-16T22:14:17.795Z,16.77
2018-03-16T22:16:45.302Z,16.10
2018-03-16T22:19:12.822Z,16.97
2018-03-16T22:21:40.326Z,17.03
2018-03-16T22:24:07.851Z,17.13
2018-03-16T22:26:36.119Z,16.80
2018-03-16T22:29:03.642Z,16.57
2018-03-16T22:31:31.137Z,16.10
2018-03-16T22:33:59.406Z,21.70
2018-03-16T22:36:26.930Z,18.10
2018-03-16T22:38:54.435Z,19.70
2018-03-16T22:41:22.721Z,19.80
2018-03-16T22:43:50.989Z,22.33
2018-03-16T22:46:19.283Z,18.00
2018-03-16T22:48:46.786Z,19.43
2018-03-16T22:51:14.282Z,19.80
2018-03-16T22:53:42.571Z,16.60
2018-03-16T22:56:10.830Z,17.43
2018-03-16T22:58:38.355Z,18.27
2018-03-16T23:01:05.859Z,20.70
2018-03-16T23:03:34.122Z,18.50
2018-03-16T23:06:01.639Z,21.60
2018-03-16T23:08:29.134Z,22.27
2018-03-16T23:10:56.651Z,24.07
2018-03-16T23:13:24.151Z,22.87
2018-03-16T23:15:51.670Z,24.00
2018-03-16T23:18:19.175Z,22.90
2018-03-16T23:20:47.439Z,24.90
2018-03-16T23:23:14.962Z,25.03
2018-03-16T23:25:42.458Z,25.13
2018-03-16T23:28:09.979Z,26.20
2018-03-16T23:30:37.479Z,26.60
2018-03-16T23:33:05.007Z,23.47
2018-03-16T23:35:33.270Z,22.83
2018-03-16T23:38:00.770Z,24.83
2018-03-16T23:40:28.287Z,25.10
2018-03-16T23:42:55.786Z,21.07
2018-03-16T23:45:23.310Z,28.63
2018-03-16T23:47:50.806Z,25.90
2018-03-16T23:50:18.335Z,26.10
2018-03-16T23:52:45.839Z,26.07
2018-03-16T23:55:14.114Z,26.20
2018-03-16T23:57:42.411Z,28.70
